AAL1256 SEGU-KMIA
Flight info
| Callsign | AAL1256 |
|---|---|
| Flight time | 3h 56m |
| Altitude | 36000 |
| Route | TOLAV2 UGUPI UL780 BUXOS UL780 TBG UL465 GCM UG448 ATUVI XOPLI UG448 IKBIX SNDBR3 |
| Aircraft | B738/M-VGDW/C |
Departure
| Time | 2026-05-07 15:10 |
|---|---|
| Airport | José Joaquín de Olmedo International Airport (SEGU) |
Arrival
| Time | 2026-05-07 19:06 |
|---|---|
| Airport | Miami International Airport (KMIA) |
| Time | Latitude | Longitude | Altitude | Speed | Heading |
|---|---|---|---|---|---|
| 2026-05-07 14:56 | -2.14850 | -79.88307 | 28 ft | 0 kts | 300° |
| 2026-05-07 15:04 | -2.14853 | -79.88302 | 28 ft | 4 kts | 302° |
| 2026-05-07 15:04 | -2.14870 | -79.88281 | 28 ft | 4 kts | 323° |
| 2026-05-07 15:04 | -2.14893 | -79.88270 | 28 ft | 4 kts | 353° |
| 2026-05-07 15:05 | -2.14916 | -79.88273 | 28 ft | 2 kts | 29° |
| 2026-05-07 15:05 | -2.14917 | -79.88273 | 28 ft | 1 kts | 30° |
| 2026-05-07 15:07 | -2.14916 | -79.88272 | 28 ft | 2 kts | 30° |
| 2026-05-07 15:07 | -2.14865 | -79.88243 | 28 ft | 14 kts | 30° |
| 2026-05-07 15:07 | -2.14794 | -79.88199 | 28 ft | 11 kts | 47° |
| 2026-05-07 15:07 | -2.14802 | -79.88131 | 28 ft | 10 kts | 118° |
| 2026-05-07 15:08 | -2.14827 | -79.88046 | 28 ft | 16 kts | 68° |
| 2026-05-07 15:08 | -2.14744 | -79.87982 | 28 ft | 15 kts | 29° |
| 2026-05-07 15:08 | -2.14667 | -79.87917 | 28 ft | 14 kts | 58° |
| 2026-05-07 15:08 | -2.14632 | -79.87819 | 22 ft | 13 kts | 82° |
| 2026-05-07 15:09 | -2.14658 | -79.87757 | 27 ft | 10 kts | 166° |
| 2026-05-07 15:09 | -2.14735 | -79.87786 | 30 ft | 16 kts | 209° |
| 2026-05-07 15:09 | -2.15018 | -79.87948 | 28 ft | 82 kts | 209° |
| 2026-05-07 15:09 | -2.15698 | -79.88341 | 26 ft | 144 kts | 210° |
| 2026-05-07 15:10 | -2.16679 | -79.88923 | 323 ft | 167 kts | 212° |
| 2026-05-07 15:10 | -2.17713 | -79.89532 | 939 ft | 179 kts | 211° |
| 2026-05-07 15:10 | -2.18808 | -79.90162 | 1546 ft | 190 kts | 210° |
| 2026-05-07 15:10 | -2.20036 | -79.90872 | 1827 ft | 214 kts | 210° |
| 2026-05-07 15:11 | -2.21380 | -79.91658 | 2099 ft | 232 kts | 210° |
| 2026-05-07 15:11 | -2.22584 | -79.92718 | 2567 ft | 239 kts | 240° |
| 2026-05-07 15:11 | -2.22979 | -79.94394 | 2869 ft | 260 kts | 278° |
| 2026-05-07 15:11 | -2.22250 | -79.96033 | 3568 ft | 264 kts | 311° |
| 2026-05-07 15:12 | -2.20799 | -79.97153 | 4219 ft | 269 kts | 335° |
| 2026-05-07 15:12 | -2.18994 | -79.97655 | 4984 ft | 271 kts | 354° |
| 2026-05-07 15:12 | -2.17089 | -79.97743 | 5705 ft | 276 kts | 360° |
| 2026-05-07 15:12 | -2.15154 | -79.97727 | 6399 ft | 280 kts | 1° |
| 2026-05-07 15:13 | -2.13193 | -79.97699 | 7045 ft | 284 kts | 1° |
| 2026-05-07 15:13 | -2.11225 | -79.97679 | 7701 ft | 287 kts | 1° |
| 2026-05-07 15:13 | -2.09200 | -79.97672 | 8367 ft | 291 kts | 1° |
| 2026-05-07 15:13 | -2.07158 | -79.97676 | 9019 ft | 296 kts | 1° |
| 2026-05-07 15:14 | -2.05079 | -79.97688 | 9689 ft | 300 kts | 1° |
| 2026-05-07 15:14 | -2.02977 | -79.97706 | 10256 ft | 306 kts | 1° |
| 2026-05-07 15:14 | -2.00797 | -79.97729 | 10419 ft | 326 kts | 1° |
| 2026-05-07 15:14 | -1.98455 | -79.97756 | 10588 ft | 345 kts | 0° |
| 2026-05-07 15:15 | -1.95981 | -79.97786 | 10712 ft | 364 kts | 1° |
| 2026-05-07 15:15 | -1.93399 | -79.97821 | 11019 ft | 375 kts | 0° |
| 2026-05-07 15:15 | -1.90811 | -79.97859 | 11523 ft | 378 kts | 0° |
| 2026-05-07 15:15 | -1.88173 | -79.97899 | 12108 ft | 379 kts | 0° |
| 2026-05-07 15:16 | -1.85530 | -79.97938 | 12643 ft | 382 kts | 0° |
| 2026-05-07 15:16 | -1.82852 | -79.97977 | 13169 ft | 386 kts | 0° |
| 2026-05-07 15:16 | -1.80153 | -79.98015 | 13697 ft | 388 kts | 0° |
| 2026-05-07 15:16 | -1.77430 | -79.98054 | 14164 ft | 391 kts | 0° |
| 2026-05-07 15:17 | -1.74698 | -79.98093 | 14618 ft | 394 kts | 0° |
| 2026-05-07 15:17 | -1.71981 | -79.98133 | 15064 ft | 396 kts | 0° |
| 2026-05-07 15:17 | -1.69204 | -79.98174 | 15508 ft | 399 kts | 0° |
| 2026-05-07 15:17 | -1.66414 | -79.98213 | 15963 ft | 402 kts | 0° |
| 2026-05-07 15:18 | -1.63597 | -79.98253 | 16399 ft | 404 kts | 0° |
| 2026-05-07 15:18 | -1.60809 | -79.98293 | 16833 ft | 407 kts | 0° |
| 2026-05-07 15:18 | -1.57966 | -79.98332 | 17255 ft | 409 kts | 0° |
| 2026-05-07 15:18 | -1.55098 | -79.98373 | 17681 ft | 412 kts | 0° |
| 2026-05-07 15:19 | -1.52218 | -79.98415 | 18109 ft | 414 kts | 0° |
| 2026-05-07 15:19 | -1.49329 | -79.98457 | 18473 ft | 416 kts | 0° |
| 2026-05-07 15:19 | -1.46448 | -79.98499 | 18827 ft | 418 kts | 0° |
| 2026-05-07 15:19 | -1.43534 | -79.98550 | 19184 ft | 420 kts | 0° |
| 2026-05-07 15:20 | -1.40602 | -79.98611 | 19527 ft | 422 kts | 0° |
| 2026-05-07 15:20 | -1.37655 | -79.98676 | 19863 ft | 424 kts | 0° |
| 2026-05-07 15:20 | -1.34729 | -79.98741 | 20189 ft | 426 kts | 0° |
| 2026-05-07 15:20 | -1.31760 | -79.98806 | 20518 ft | 427 kts | 0° |
| 2026-05-07 15:21 | -1.28779 | -79.98870 | 20855 ft | 429 kts | 1° |
| 2026-05-07 15:21 | -1.25779 | -79.98935 | 21171 ft | 431 kts | 1° |
| 2026-05-07 15:21 | -1.22754 | -79.98999 | 21491 ft | 433 kts | 1° |
| 2026-05-07 15:21 | -1.19734 | -79.99063 | 21806 ft | 435 kts | 1° |
| 2026-05-07 15:22 | -1.16739 | -79.99126 | 22111 ft | 436 kts | 1° |
| 2026-05-07 15:22 | -1.13689 | -79.99191 | 22419 ft | 438 kts | 1° |
| 2026-05-07 15:22 | -1.10615 | -79.99256 | 22725 ft | 440 kts | 1° |
| 2026-05-07 15:22 | -1.07547 | -79.99321 | 23009 ft | 442 kts | 1° |
| 2026-05-07 15:23 | -1.04492 | -79.99385 | 23287 ft | 443 kts | 1° |
| 2026-05-07 15:23 | -1.01393 | -79.99450 | 23577 ft | 444 kts | 1° |
| 2026-05-07 15:23 | -0.98321 | -79.99515 | 23813 ft | 446 kts | 1° |
| 2026-05-07 15:23 | -0.95206 | -79.99581 | 24040 ft | 448 kts | 1° |
| 2026-05-07 15:24 | -0.92081 | -79.99647 | 24241 ft | 450 kts | 1° |
| 2026-05-07 15:24 | -0.88943 | -79.99713 | 24458 ft | 451 kts | 1° |
| 2026-05-07 15:24 | -0.85798 | -79.99780 | 24676 ft | 452 kts | 1° |
| 2026-05-07 15:24 | -0.82675 | -79.99845 | 24870 ft | 454 kts | 0° |
| 2026-05-07 15:25 | -0.79504 | -79.99912 | 25077 ft | 455 kts | 1° |
| 2026-05-07 15:25 | -0.76325 | -79.99980 | 25252 ft | 457 kts | 0° |
| 2026-05-07 15:25 | -0.73137 | -80.00047 | 25446 ft | 459 kts | 1° |
| 2026-05-07 15:25 | -0.69931 | -80.00115 | 25650 ft | 460 kts | 0° |
| 2026-05-07 15:26 | -0.66723 | -80.00183 | 25837 ft | 462 kts | 1° |
| 2026-05-07 15:26 | -0.63502 | -80.00250 | 25993 ft | 463 kts | 0° |
| 2026-05-07 15:26 | -0.60275 | -80.00321 | 26162 ft | 465 kts | 0° |
| 2026-05-07 15:26 | -0.57037 | -80.00389 | 26333 ft | 466 kts | 0° |
| 2026-05-07 15:27 | -0.53826 | -80.00456 | 26495 ft | 467 kts | 0° |
| 2026-05-07 15:27 | -0.50575 | -80.00524 | 26671 ft | 468 kts | 0° |
| 2026-05-07 15:27 | -0.47309 | -80.00592 | 26850 ft | 470 kts | 0° |
| 2026-05-07 15:27 | -0.44025 | -80.00661 | 27019 ft | 471 kts | 0° |
| 2026-05-07 15:28 | -0.40734 | -80.00731 | 27174 ft | 473 kts | 0° |
| 2026-05-07 15:28 | -0.37441 | -80.00801 | 27337 ft | 474 kts | 0° |
| 2026-05-07 15:28 | -0.34176 | -80.00870 | 27505 ft | 475 kts | 0° |
| 2026-05-07 15:28 | -0.30853 | -80.00940 | 27669 ft | 476 kts | 0° |
| 2026-05-07 15:29 | -0.27522 | -80.01010 | 27826 ft | 477 kts | 0° |
| 2026-05-07 15:29 | -0.24196 | -80.01080 | 27994 ft | 479 kts | 0° |
| 2026-05-07 15:29 | -0.20896 | -80.01150 | 28161 ft | 480 kts | 0° |
| 2026-05-07 15:29 | -0.17552 | -80.01221 | 28321 ft | 481 kts | 0° |
| 2026-05-07 15:30 | -0.14187 | -80.01292 | 28456 ft | 482 kts | 0° |
| 2026-05-07 15:30 | -0.10826 | -80.01363 | 28593 ft | 483 kts | 0° |
| 2026-05-07 15:30 | -0.07460 | -80.01413 | 28734 ft | 483 kts | 2° |
| 2026-05-07 15:30 | -0.04132 | -80.01216 | 28897 ft | 483 kts | 7° |
| 2026-05-07 15:31 | -0.00791 | -80.00822 | 29111 ft | 482 kts | 9° |
| 2026-05-07 15:31 | 0.02530 | -80.00352 | 29343 ft | 480 kts | 10° |
| 2026-05-07 15:31 | 0.05845 | -79.99868 | 29533 ft | 480 kts | 9° |
| 2026-05-07 15:31 | 0.09158 | -79.99402 | 29711 ft | 481 kts | 9° |
| 2026-05-07 15:32 | 0.12429 | -79.98965 | 29924 ft | 480 kts | 8° |
| 2026-05-07 15:32 | 0.15746 | -79.98543 | 30134 ft | 479 kts | 8° |
| 2026-05-07 15:32 | 0.19061 | -79.98135 | 30289 ft | 479 kts | 8° |
| 2026-05-07 15:32 | 0.22378 | -79.97733 | 30450 ft | 479 kts | 8° |
| 2026-05-07 15:33 | 0.25700 | -79.97334 | 30625 ft | 479 kts | 8° |
| 2026-05-07 15:33 | 0.28977 | -79.96941 | 30804 ft | 479 kts | 8° |
| 2026-05-07 15:33 | 0.32289 | -79.96543 | 30972 ft | 478 kts | 8° |
| 2026-05-07 15:33 | 0.35597 | -79.96144 | 31151 ft | 478 kts | 8° |
| 2026-05-07 15:34 | 0.38905 | -79.95745 | 31332 ft | 478 kts | 8° |
| 2026-05-07 15:34 | 0.42217 | -79.95344 | 31506 ft | 478 kts | 8° |
| 2026-05-07 15:34 | 0.45521 | -79.94944 | 31680 ft | 478 kts | 8° |
| 2026-05-07 15:34 | 0.48830 | -79.94544 | 31874 ft | 477 kts | 8° |
| 2026-05-07 15:35 | 0.52088 | -79.94149 | 32083 ft | 477 kts | 8° |
| 2026-05-07 15:35 | 0.55391 | -79.93749 | 32289 ft | 476 kts | 7° |
| 2026-05-07 15:35 | 0.58683 | -79.93351 | 32479 ft | 476 kts | 7° |
| 2026-05-07 15:35 | 0.61971 | -79.92953 | 32677 ft | 475 kts | 7° |
| 2026-05-07 15:36 | 0.65264 | -79.92555 | 32884 ft | 475 kts | 7° |
| 2026-05-07 15:36 | 0.68507 | -79.92162 | 33088 ft | 474 kts | 7° |
| 2026-05-07 15:36 | 0.71775 | -79.91766 | 33279 ft | 474 kts | 7° |
| 2026-05-07 15:36 | 0.75048 | -79.91370 | 33480 ft | 473 kts | 7° |
| 2026-05-07 15:37 | 0.78321 | -79.90974 | 33697 ft | 472 kts | 7° |
| 2026-05-07 15:37 | 0.80482 | -79.90712 | 33854 ft | 471 kts | 7° |
| 2026-05-07 15:37 | 0.83737 | -79.90318 | 34086 ft | 469 kts | 7° |
| 2026-05-07 15:37 | 0.86980 | -79.89926 | 34269 ft | 469 kts | 7° |
| 2026-05-07 15:38 | 0.90229 | -79.89533 | 34421 ft | 469 kts | 7° |
| 2026-05-07 15:38 | 0.94514 | -79.89014 | 34625 ft | 468 kts | 7° |
| 2026-05-07 15:38 | 0.96705 | -79.88749 | 34747 ft | 468 kts | 7° |
| 2026-05-07 15:38 | 0.99896 | -79.88362 | 34929 ft | 467 kts | 7° |
| 2026-05-07 15:39 | 1.03116 | -79.87973 | 35109 ft | 466 kts | 7° |
| 2026-05-07 15:39 | 1.06334 | -79.87583 | 35276 ft | 465 kts | 7° |
| 2026-05-07 15:39 | 1.09550 | -79.87194 | 35416 ft | 465 kts | 7° |
| 2026-05-07 15:39 | 1.12767 | -79.86804 | 35559 ft | 465 kts | 7° |
| 2026-05-07 15:40 | 1.15987 | -79.86414 | 35728 ft | 464 kts | 7° |
| 2026-05-07 15:40 | 1.19158 | -79.86030 | 35894 ft | 463 kts | 7° |
| 2026-05-07 15:40 | 1.25583 | -79.85252 | 35933 ft | 465 kts | 7° |
| 2026-05-07 15:41 | 1.31994 | -79.84476 | 35941 ft | 463 kts | 7° |
| 2026-05-07 15:41 | 1.38366 | -79.83704 | 35945 ft | 463 kts | 7° |
| 2026-05-07 15:42 | 1.44781 | -79.83038 | 35944 ft | 462 kts | 4° |
| 2026-05-07 15:42 | 1.51213 | -79.82760 | 35942 ft | 462 kts | 2° |
| 2026-05-07 15:43 | 1.57613 | -79.82552 | 35945 ft | 461 kts | 2° |
| 2026-05-07 15:43 | 1.64046 | -79.82305 | 35945 ft | 461 kts | 3° |
| 2026-05-07 15:44 | 1.70416 | -79.82030 | 35947 ft | 461 kts | 3° |
| 2026-05-07 15:44 | 1.76833 | -79.81744 | 35945 ft | 461 kts | 3° |
| 2026-05-07 15:45 | 1.83242 | -79.81457 | 35947 ft | 461 kts | 3° |
| 2026-05-07 15:45 | 1.89651 | -79.81172 | 35948 ft | 461 kts | 3° |
| 2026-05-07 15:46 | 1.99233 | -79.80746 | 35952 ft | 461 kts | 2° |
| 2026-05-07 15:47 | 2.05657 | -79.80461 | 35951 ft | 461 kts | 2° |
| 2026-05-07 15:47 | 2.12078 | -79.80176 | 35951 ft | 461 kts | 2° |
| 2026-05-07 15:48 | 2.18484 | -79.79891 | 35953 ft | 462 kts | 2° |
| 2026-05-07 15:48 | 2.24874 | -79.79607 | 35954 ft | 462 kts | 2° |
| 2026-05-07 15:49 | 2.31309 | -79.79321 | 35950 ft | 462 kts | 2° |
| 2026-05-07 15:49 | 2.37735 | -79.79036 | 35951 ft | 462 kts | 2° |
| 2026-05-07 15:50 | 2.44130 | -79.78751 | 35952 ft | 461 kts | 2° |
| 2026-05-07 15:50 | 2.50556 | -79.78466 | 35952 ft | 461 kts | 2° |
| 2026-05-07 15:51 | 2.56950 | -79.78182 | 35954 ft | 461 kts | 2° |
| 2026-05-07 15:51 | 2.63366 | -79.77897 | 35954 ft | 460 kts | 2° |
| 2026-05-07 15:52 | 2.69751 | -79.77613 | 35951 ft | 460 kts | 2° |
| 2026-05-07 15:52 | 2.76169 | -79.77327 | 35950 ft | 460 kts | 2° |
| 2026-05-07 15:53 | 2.82533 | -79.77045 | 35952 ft | 459 kts | 2° |
| 2026-05-07 15:53 | 2.88917 | -79.76761 | 35951 ft | 459 kts | 2° |
| 2026-05-07 15:54 | 2.95293 | -79.76477 | 35949 ft | 458 kts | 2° |
| 2026-05-07 15:54 | 3.01666 | -79.76194 | 35949 ft | 458 kts | 2° |
| 2026-05-07 15:55 | 3.07999 | -79.75912 | 35948 ft | 457 kts | 2° |
| 2026-05-07 15:55 | 3.14330 | -79.75630 | 35947 ft | 457 kts | 2° |
| 2026-05-07 15:56 | 3.20696 | -79.75347 | 35949 ft | 457 kts | 2° |
| 2026-05-07 15:56 | 3.27031 | -79.75065 | 35951 ft | 457 kts | 2° |
| 2026-05-07 15:57 | 3.33397 | -79.74782 | 35951 ft | 457 kts | 2° |
| 2026-05-07 15:57 | 3.39758 | -79.74499 | 35951 ft | 457 kts | 2° |
| 2026-05-07 15:58 | 3.46096 | -79.74217 | 35951 ft | 457 kts | 2° |
| 2026-05-07 15:58 | 3.52433 | -79.73934 | 35954 ft | 457 kts | 2° |
| 2026-05-07 15:59 | 3.58796 | -79.73651 | 35950 ft | 457 kts | 2° |
| 2026-05-07 15:59 | 3.65120 | -79.73369 | 35952 ft | 457 kts | 2° |
| 2026-05-07 16:00 | 3.71505 | -79.73085 | 35953 ft | 458 kts | 2° |
| 2026-05-07 16:00 | 3.77840 | -79.72803 | 35953 ft | 458 kts | 2° |
| 2026-05-07 16:01 | 3.84222 | -79.72518 | 35953 ft | 458 kts | 2° |
| 2026-05-07 16:01 | 3.90559 | -79.72236 | 35953 ft | 458 kts | 2° |
| 2026-05-07 16:02 | 3.96942 | -79.71952 | 35951 ft | 458 kts | 2° |
| 2026-05-07 16:02 | 4.03284 | -79.71669 | 35956 ft | 457 kts | 2° |
| 2026-05-07 16:03 | 4.09651 | -79.71385 | 35956 ft | 457 kts | 2° |
| 2026-05-07 16:03 | 4.16004 | -79.71102 | 35956 ft | 456 kts | 2° |
| 2026-05-07 16:04 | 4.22329 | -79.70820 | 35950 ft | 456 kts | 2° |
| 2026-05-07 16:04 | 4.28683 | -79.70536 | 35953 ft | 456 kts | 2° |
| 2026-05-07 16:05 | 4.34998 | -79.70255 | 35950 ft | 455 kts | 2° |
| 2026-05-07 16:05 | 4.41316 | -79.69973 | 35953 ft | 455 kts | 2° |
| 2026-05-07 16:06 | 4.47658 | -79.69690 | 35953 ft | 456 kts | 3° |
| 2026-05-07 16:06 | 4.54005 | -79.69406 | 35954 ft | 456 kts | 3° |
| 2026-05-07 16:07 | 4.60328 | -79.69124 | 35953 ft | 457 kts | 3° |
| 2026-05-07 16:07 | 4.66691 | -79.68840 | 35954 ft | 457 kts | 3° |
| 2026-05-07 16:08 | 4.73032 | -79.68557 | 35955 ft | 458 kts | 3° |
| 2026-05-07 16:08 | 4.79412 | -79.68272 | 35953 ft | 459 kts | 3° |
| 2026-05-07 16:09 | 4.85803 | -79.67986 | 35955 ft | 460 kts | 3° |
| 2026-05-07 16:09 | 4.92171 | -79.67701 | 35955 ft | 461 kts | 3° |
| 2026-05-07 16:10 | 4.98597 | -79.67414 | 35953 ft | 461 kts | 3° |
| 2026-05-07 16:10 | 5.05004 | -79.67128 | 35952 ft | 462 kts | 3° |
| 2026-05-07 16:11 | 5.11446 | -79.66840 | 35953 ft | 462 kts | 3° |
| 2026-05-07 16:11 | 5.17856 | -79.66556 | 35954 ft | 463 kts | 2° |
| 2026-05-07 16:12 | 5.24302 | -79.66358 | 35949 ft | 463 kts | 2° |
| 2026-05-07 16:12 | 5.30753 | -79.66197 | 35950 ft | 463 kts | 2° |
| 2026-05-07 16:13 | 5.37158 | -79.66032 | 35953 ft | 463 kts | 2° |
| 2026-05-07 16:13 | 5.43608 | -79.65855 | 35951 ft | 463 kts | 2° |
| 2026-05-07 16:14 | 5.50049 | -79.65676 | 35950 ft | 463 kts | 2° |
| 2026-05-07 16:14 | 5.56500 | -79.65496 | 35950 ft | 463 kts | 2° |
| 2026-05-07 16:15 | 5.62913 | -79.65317 | 35950 ft | 462 kts | 2° |
| 2026-05-07 16:15 | 5.69350 | -79.65137 | 35952 ft | 462 kts | 2° |
| 2026-05-07 16:16 | 5.75793 | -79.64958 | 35951 ft | 462 kts | 2° |
| 2026-05-07 16:16 | 5.82192 | -79.64779 | 35952 ft | 462 kts | 2° |
| 2026-05-07 16:17 | 5.88643 | -79.64600 | 35949 ft | 462 kts | 2° |
| 2026-05-07 16:17 | 5.95083 | -79.64420 | 35952 ft | 462 kts | 2° |
| 2026-05-07 16:18 | 6.01505 | -79.64241 | 35950 ft | 462 kts | 2° |
| 2026-05-07 16:18 | 6.07901 | -79.64062 | 35951 ft | 462 kts | 2° |
| 2026-05-07 16:19 | 6.14341 | -79.63883 | 35952 ft | 462 kts | 2° |
| 2026-05-07 16:19 | 6.20783 | -79.63703 | 35948 ft | 462 kts | 2° |
| 2026-05-07 16:20 | 6.27186 | -79.63524 | 35950 ft | 462 kts | 2° |
| 2026-05-07 16:20 | 6.33625 | -79.63344 | 35953 ft | 462 kts | 2° |
| 2026-05-07 16:21 | 6.40057 | -79.63165 | 35945 ft | 462 kts | 2° |
| 2026-05-07 16:21 | 6.46472 | -79.62985 | 35950 ft | 461 kts | 2° |
| 2026-05-07 16:22 | 6.52871 | -79.62806 | 35947 ft | 461 kts | 2° |
| 2026-05-07 16:22 | 6.59300 | -79.62627 | 35949 ft | 462 kts | 2° |
| 2026-05-07 16:23 | 6.65731 | -79.62447 | 35944 ft | 462 kts | 2° |
| 2026-05-07 16:23 | 6.72134 | -79.62268 | 35948 ft | 462 kts | 2° |
| 2026-05-07 16:24 | 6.78586 | -79.62087 | 35947 ft | 462 kts | 2° |
| 2026-05-07 16:24 | 6.84994 | -79.61908 | 35950 ft | 463 kts | 2° |
| 2026-05-07 16:25 | 6.91447 | -79.61727 | 35949 ft | 463 kts | 2° |
| 2026-05-07 16:25 | 6.97876 | -79.61547 | 35952 ft | 464 kts | 2° |
| 2026-05-07 16:26 | 7.04338 | -79.61366 | 35952 ft | 464 kts | 1° |
| 2026-05-07 16:26 | 7.10765 | -79.61186 | 35944 ft | 464 kts | 1° |
| 2026-05-07 16:27 | 7.16146 | -79.61035 | 35950 ft | 464 kts | 1° |
| 2026-05-07 16:27 | 7.22631 | -79.60853 | 35949 ft | 464 kts | 1° |
| 2026-05-07 16:28 | 7.29040 | -79.60673 | 35949 ft | 463 kts | 1° |
| 2026-05-07 16:28 | 7.35509 | -79.60483 | 35943 ft | 462 kts | 1° |
| 2026-05-07 16:29 | 7.41905 | -79.60291 | 35949 ft | 462 kts | 1° |
| 2026-05-07 16:29 | 7.48348 | -79.60098 | 35942 ft | 461 kts | 1° |
| 2026-05-07 16:30 | 7.54720 | -79.59908 | 35943 ft | 460 kts | 1° |
| 2026-05-07 16:30 | 7.61127 | -79.59717 | 35943 ft | 459 kts | 1° |
| 2026-05-07 16:31 | 7.67480 | -79.59528 | 35947 ft | 458 kts | 1° |
| 2026-05-07 16:31 | 7.73865 | -79.59337 | 35948 ft | 458 kts | 1° |
| 2026-05-07 16:32 | 7.80250 | -79.59147 | 35948 ft | 458 kts | 1° |
| 2026-05-07 16:32 | 7.86587 | -79.58958 | 35946 ft | 458 kts | 1° |
| 2026-05-07 16:33 | 7.92973 | -79.58767 | 35948 ft | 458 kts | 1° |
| 2026-05-07 16:33 | 7.99361 | -79.58577 | 35949 ft | 459 kts | 1° |
| 2026-05-07 16:34 | 8.05709 | -79.58387 | 35948 ft | 459 kts | 1° |
| 2026-05-07 16:34 | 8.12108 | -79.58196 | 35942 ft | 459 kts | 1° |
| 2026-05-07 16:35 | 8.18517 | -79.58004 | 35941 ft | 460 kts | 1° |
| 2026-05-07 16:35 | 8.24899 | -79.57814 | 35941 ft | 460 kts | 1° |
| 2026-05-07 16:36 | 8.31278 | -79.57623 | 35937 ft | 460 kts | 1° |
| 2026-05-07 16:36 | 8.37692 | -79.57431 | 35932 ft | 461 kts | 1° |
| 2026-05-07 16:37 | 8.44129 | -79.57239 | 35930 ft | 461 kts | 1° |
| 2026-05-07 16:37 | 8.50505 | -79.57048 | 35929 ft | 461 kts | 1° |
| 2026-05-07 16:38 | 8.56931 | -79.56855 | 35925 ft | 461 kts | 1° |
| 2026-05-07 16:38 | 8.63319 | -79.56664 | 35923 ft | 461 kts | 1° |
| 2026-05-07 16:39 | 8.69749 | -79.56471 | 35917 ft | 461 kts | 1° |
| 2026-05-07 16:39 | 8.74081 | -79.56342 | 35916 ft | 461 kts | 1° |
| 2026-05-07 16:40 | 8.80345 | -79.56372 | 35905 ft | 460 kts | 352° |
| 2026-05-07 16:40 | 8.86635 | -79.57409 | 35908 ft | 459 kts | 349° |
| 2026-05-07 16:41 | 8.92936 | -79.58557 | 35915 ft | 459 kts | 349° |
| 2026-05-07 16:41 | 8.99236 | -79.59672 | 35939 ft | 459 kts | 350° |
| 2026-05-07 16:42 | 9.05500 | -79.60749 | 35941 ft | 458 kts | 350° |
| 2026-05-07 16:42 | 9.11792 | -79.61820 | 35936 ft | 457 kts | 350° |
| 2026-05-07 16:43 | 9.18067 | -79.62887 | 35933 ft | 457 kts | 350° |
| 2026-05-07 16:43 | 9.24302 | -79.63950 | 35936 ft | 456 kts | 350° |
| 2026-05-07 16:44 | 9.30559 | -79.65017 | 35939 ft | 455 kts | 350° |
| 2026-05-07 16:44 | 9.36812 | -79.66085 | 35942 ft | 454 kts | 350° |
| 2026-05-07 16:45 | 9.43042 | -79.67148 | 35946 ft | 454 kts | 350° |
| 2026-05-07 16:45 | 9.49242 | -79.68207 | 35948 ft | 454 kts | 350° |
| 2026-05-07 16:46 | 9.55459 | -79.69269 | 35945 ft | 454 kts | 350° |
| 2026-05-07 16:46 | 9.61708 | -79.70338 | 35948 ft | 453 kts | 350° |
| 2026-05-07 16:47 | 9.67904 | -79.71397 | 35949 ft | 454 kts | 350° |
| 2026-05-07 16:47 | 9.74149 | -79.72465 | 35953 ft | 454 kts | 350° |
| 2026-05-07 16:48 | 9.80350 | -79.73527 | 35953 ft | 454 kts | 350° |
| 2026-05-07 16:48 | 9.86594 | -79.74596 | 35955 ft | 454 kts | 350° |
| 2026-05-07 16:49 | 9.92852 | -79.75667 | 35954 ft | 455 kts | 350° |
| 2026-05-07 16:49 | 9.99070 | -79.76733 | 35955 ft | 455 kts | 350° |
| 2026-05-07 16:50 | 10.05326 | -79.77805 | 35957 ft | 455 kts | 349° |
| 2026-05-07 16:50 | 10.11551 | -79.78872 | 35959 ft | 456 kts | 349° |
| 2026-05-07 16:51 | 10.17810 | -79.79946 | 35959 ft | 456 kts | 349° |
| 2026-05-07 16:51 | 10.24065 | -79.81019 | 35963 ft | 456 kts | 350° |
| 2026-05-07 16:52 | 10.30325 | -79.82094 | 35961 ft | 455 kts | 349° |
| 2026-05-07 16:52 | 10.36541 | -79.83162 | 35959 ft | 455 kts | 349° |
| 2026-05-07 16:53 | 10.42799 | -79.84236 | 35957 ft | 455 kts | 349° |
| 2026-05-07 16:53 | 10.49049 | -79.85280 | 35961 ft | 454 kts | 350° |
| 2026-05-07 16:54 | 10.55274 | -79.86307 | 35961 ft | 454 kts | 350° |
| 2026-05-07 16:54 | 10.61511 | -79.87338 | 35960 ft | 454 kts | 350° |
| 2026-05-07 16:55 | 10.67747 | -79.88373 | 35961 ft | 453 kts | 350° |
| 2026-05-07 16:55 | 10.73942 | -79.89402 | 35962 ft | 453 kts | 350° |
| 2026-05-07 16:56 | 10.80186 | -79.90441 | 35960 ft | 453 kts | 350° |
| 2026-05-07 16:56 | 10.89475 | -79.91987 | 35966 ft | 453 kts | 350° |
| 2026-05-07 16:57 | 10.95708 | -79.93024 | 35963 ft | 453 kts | 350° |
| 2026-05-07 16:57 | 11.01943 | -79.94063 | 35961 ft | 453 kts | 350° |
| 2026-05-07 16:58 | 11.08125 | -79.95092 | 35959 ft | 453 kts | 350° |
| 2026-05-07 16:58 | 11.14331 | -79.96127 | 35962 ft | 453 kts | 350° |
| 2026-05-07 16:59 | 11.20568 | -79.97167 | 35961 ft | 453 kts | 350° |
| 2026-05-07 16:59 | 11.26795 | -79.98206 | 35966 ft | 453 kts | 350° |
| 2026-05-07 17:00 | 11.32996 | -79.99241 | 35966 ft | 454 kts | 350° |
| 2026-05-07 17:00 | 11.39242 | -80.00284 | 35961 ft | 454 kts | 350° |
| 2026-05-07 17:01 | 11.45489 | -80.01327 | 35963 ft | 454 kts | 350° |
| 2026-05-07 17:01 | 11.51706 | -80.02366 | 35960 ft | 454 kts | 350° |
| 2026-05-07 17:02 | 11.57966 | -80.03412 | 35964 ft | 455 kts | 350° |
| 2026-05-07 17:02 | 11.64178 | -80.04452 | 35959 ft | 455 kts | 350° |
| 2026-05-07 17:03 | 11.70436 | -80.05499 | 35967 ft | 455 kts | 350° |
| 2026-05-07 17:03 | 11.76689 | -80.06546 | 35966 ft | 455 kts | 350° |
| 2026-05-07 17:04 | 11.82908 | -80.07587 | 35959 ft | 455 kts | 350° |
| 2026-05-07 17:04 | 11.89148 | -80.08633 | 35964 ft | 455 kts | 350° |
| 2026-05-07 17:05 | 11.95401 | -80.09681 | 35965 ft | 454 kts | 350° |
| 2026-05-07 17:05 | 12.01656 | -80.10730 | 35965 ft | 454 kts | 350° |
| 2026-05-07 17:06 | 12.07891 | -80.11777 | 35965 ft | 454 kts | 350° |
| 2026-05-07 17:06 | 12.14109 | -80.12821 | 35962 ft | 453 kts | 350° |
| 2026-05-07 17:07 | 12.20307 | -80.13861 | 35964 ft | 453 kts | 350° |
| 2026-05-07 17:07 | 12.26537 | -80.14909 | 35963 ft | 453 kts | 350° |
| 2026-05-07 17:08 | 12.32765 | -80.15956 | 35963 ft | 453 kts | 350° |
| 2026-05-07 17:08 | 12.38955 | -80.16997 | 35966 ft | 453 kts | 350° |
| 2026-05-07 17:09 | 12.45184 | -80.18045 | 35969 ft | 453 kts | 350° |
| 2026-05-07 17:09 | 12.51416 | -80.19095 | 35964 ft | 453 kts | 350° |
| 2026-05-07 17:10 | 12.57610 | -80.20138 | 35970 ft | 453 kts | 350° |
| 2026-05-07 17:10 | 12.63835 | -80.21187 | 35970 ft | 453 kts | 350° |
| 2026-05-07 17:11 | 12.70026 | -80.22231 | 35972 ft | 453 kts | 350° |
| 2026-05-07 17:11 | 12.76259 | -80.23283 | 35976 ft | 453 kts | 350° |
| 2026-05-07 17:12 | 12.82450 | -80.24327 | 35970 ft | 453 kts | 350° |
| 2026-05-07 17:12 | 12.88686 | -80.25380 | 35974 ft | 453 kts | 351° |
| 2026-05-07 17:13 | 12.94884 | -80.26428 | 35974 ft | 453 kts | 351° |
| 2026-05-07 17:13 | 13.00050 | -80.27301 | 35972 ft | 453 kts | 351° |
| 2026-05-07 17:14 | 13.06289 | -80.28356 | 35971 ft | 453 kts | 351° |
| 2026-05-07 17:14 | 13.12486 | -80.29405 | 35977 ft | 453 kts | 351° |
| 2026-05-07 17:15 | 13.18676 | -80.30452 | 35973 ft | 453 kts | 351° |
| 2026-05-07 17:15 | 13.24893 | -80.31505 | 35978 ft | 452 kts | 351° |
| 2026-05-07 17:16 | 13.31111 | -80.32559 | 35977 ft | 452 kts | 351° |
| 2026-05-07 17:16 | 13.37339 | -80.33615 | 35977 ft | 452 kts | 351° |
| 2026-05-07 17:17 | 13.43522 | -80.34664 | 35979 ft | 452 kts | 352° |
| 2026-05-07 17:17 | 13.49713 | -80.35715 | 35979 ft | 452 kts | 352° |
| 2026-05-07 17:18 | 13.55943 | -80.36772 | 35982 ft | 452 kts | 352° |
| 2026-05-07 17:18 | 13.62159 | -80.37828 | 35982 ft | 452 kts | 352° |
| 2026-05-07 17:19 | 13.68332 | -80.38878 | 35982 ft | 452 kts | 352° |
| 2026-05-07 17:19 | 13.74552 | -80.39936 | 35980 ft | 452 kts | 352° |
| 2026-05-07 17:20 | 13.80723 | -80.40986 | 35984 ft | 452 kts | 352° |
| 2026-05-07 17:20 | 13.86944 | -80.42045 | 35982 ft | 452 kts | 352° |
| 2026-05-07 17:21 | 13.93175 | -80.43107 | 35984 ft | 453 kts | 352° |
| 2026-05-07 17:21 | 13.99393 | -80.44167 | 35985 ft | 453 kts | 352° |
| 2026-05-07 17:22 | 14.05593 | -80.45223 | 35988 ft | 453 kts | 352° |
| 2026-05-07 17:22 | 14.11839 | -80.46290 | 35985 ft | 454 kts | 352° |
| 2026-05-07 17:23 | 14.18033 | -80.47348 | 35989 ft | 454 kts | 352° |
| 2026-05-07 17:23 | 14.24290 | -80.48417 | 35992 ft | 455 kts | 352° |
| 2026-05-07 17:24 | 14.30502 | -80.49479 | 35987 ft | 455 kts | 352° |
| 2026-05-07 17:24 | 14.36758 | -80.50549 | 35989 ft | 455 kts | 352° |
| 2026-05-07 17:25 | 14.43018 | -80.51620 | 35987 ft | 455 kts | 352° |
| 2026-05-07 17:25 | 14.49252 | -80.52687 | 35992 ft | 455 kts | 352° |
| 2026-05-07 17:26 | 14.55501 | -80.53758 | 35991 ft | 455 kts | 352° |
| 2026-05-07 17:26 | 14.61729 | -80.54825 | 35990 ft | 455 kts | 352° |
| 2026-05-07 17:27 | 14.67992 | -80.55900 | 35994 ft | 455 kts | 352° |
| 2026-05-07 17:27 | 14.74235 | -80.56970 | 36001 ft | 454 kts | 352° |
| 2026-05-07 17:28 | 14.80461 | -80.58040 | 35996 ft | 454 kts | 352° |
| 2026-05-07 17:28 | 14.86704 | -80.59113 | 35999 ft | 454 kts | 352° |
| 2026-05-07 17:29 | 14.92934 | -80.60184 | 35996 ft | 453 kts | 352° |
| 2026-05-07 17:29 | 14.99111 | -80.61246 | 35992 ft | 453 kts | 352° |
| 2026-05-07 17:30 | 15.05345 | -80.62322 | 35993 ft | 452 kts | 352° |
| 2026-05-07 17:30 | 15.11534 | -80.63396 | 36002 ft | 452 kts | 352° |
| 2026-05-07 17:31 | 15.17709 | -80.64468 | 35998 ft | 451 kts | 352° |
| 2026-05-07 17:31 | 15.23923 | -80.65546 | 35993 ft | 451 kts | 352° |
| 2026-05-07 17:32 | 15.30088 | -80.66616 | 35994 ft | 451 kts | 352° |
| 2026-05-07 17:32 | 15.36296 | -80.67695 | 36003 ft | 451 kts | 352° |
| 2026-05-07 17:33 | 15.42452 | -80.68764 | 35995 ft | 451 kts | 352° |
| 2026-05-07 17:33 | 15.48646 | -80.69842 | 36005 ft | 451 kts | 352° |
| 2026-05-07 17:34 | 15.54829 | -80.70918 | 36001 ft | 451 kts | 351° |
| 2026-05-07 17:34 | 15.60990 | -80.71991 | 36005 ft | 450 kts | 351° |
| 2026-05-07 17:35 | 15.67174 | -80.73068 | 35999 ft | 450 kts | 351° |
| 2026-05-07 17:35 | 15.73378 | -80.74150 | 35998 ft | 451 kts | 351° |
| 2026-05-07 17:36 | 15.79530 | -80.75223 | 35996 ft | 450 kts | 351° |
| 2026-05-07 17:36 | 15.85719 | -80.76304 | 35998 ft | 451 kts | 351° |
| 2026-05-07 17:37 | 15.91916 | -80.77386 | 35997 ft | 450 kts | 351° |
| 2026-05-07 17:37 | 15.98074 | -80.78463 | 36005 ft | 450 kts | 351° |
| 2026-05-07 17:38 | 16.04260 | -80.79543 | 36008 ft | 450 kts | 351° |
| 2026-05-07 17:38 | 16.10453 | -80.80623 | 36008 ft | 451 kts | 351° |
| 2026-05-07 17:39 | 16.16613 | -80.81698 | 36008 ft | 450 kts | 351° |
| 2026-05-07 17:39 | 16.22815 | -80.82782 | 35999 ft | 450 kts | 351° |
| 2026-05-07 17:40 | 16.29014 | -80.83866 | 36013 ft | 450 kts | 351° |
| 2026-05-07 17:40 | 16.35179 | -80.84945 | 36001 ft | 450 kts | 351° |
| 2026-05-07 17:41 | 16.41339 | -80.86024 | 36012 ft | 450 kts | 351° |
| 2026-05-07 17:41 | 16.47524 | -80.87107 | 36003 ft | 450 kts | 351° |
| 2026-05-07 17:42 | 16.53702 | -80.88190 | 36007 ft | 450 kts | 351° |
| 2026-05-07 17:42 | 16.59859 | -80.89270 | 36009 ft | 450 kts | 351° |
| 2026-05-07 17:43 | 16.66061 | -80.90359 | 36013 ft | 450 kts | 351° |
| 2026-05-07 17:43 | 16.72205 | -80.91438 | 36017 ft | 450 kts | 351° |
| 2026-05-07 17:44 | 16.78376 | -80.92523 | 36016 ft | 449 kts | 351° |
| 2026-05-07 17:44 | 16.84568 | -80.93612 | 36010 ft | 449 kts | 351° |
| 2026-05-07 17:45 | 16.90733 | -80.94697 | 36014 ft | 449 kts | 351° |
| 2026-05-07 17:45 | 16.96865 | -80.95777 | 36011 ft | 449 kts | 350° |
| 2026-05-07 17:46 | 17.03041 | -80.96866 | 36017 ft | 449 kts | 350° |
| 2026-05-07 17:46 | 17.09200 | -80.97952 | 36017 ft | 449 kts | 350° |
| 2026-05-07 17:47 | 17.15363 | -80.99039 | 36008 ft | 448 kts | 350° |
| 2026-05-07 17:47 | 17.21495 | -81.00122 | 36011 ft | 448 kts | 350° |
| 2026-05-07 17:48 | 17.27656 | -81.01211 | 36018 ft | 448 kts | 350° |
| 2026-05-07 17:48 | 17.33806 | -81.02298 | 36010 ft | 447 kts | 350° |
| 2026-05-07 17:49 | 17.39919 | -81.03380 | 36011 ft | 447 kts | 350° |
| 2026-05-07 17:49 | 17.46086 | -81.04472 | 36019 ft | 447 kts | 350° |
| 2026-05-07 17:50 | 17.52180 | -81.05552 | 36018 ft | 447 kts | 350° |
| 2026-05-07 17:50 | 17.58325 | -81.06642 | 36012 ft | 447 kts | 350° |
| 2026-05-07 17:51 | 17.64474 | -81.07732 | 36024 ft | 447 kts | 350° |
| 2026-05-07 17:51 | 17.70576 | -81.08816 | 36022 ft | 447 kts | 350° |
| 2026-05-07 17:52 | 17.76732 | -81.09910 | 36018 ft | 447 kts | 349° |
| 2026-05-07 17:52 | 17.82864 | -81.11000 | 36017 ft | 447 kts | 349° |
| 2026-05-07 17:53 | 17.88973 | -81.12087 | 36021 ft | 447 kts | 349° |
| 2026-05-07 17:53 | 17.95089 | -81.13176 | 36023 ft | 447 kts | 349° |
| 2026-05-07 17:54 | 18.01236 | -81.14271 | 36020 ft | 448 kts | 349° |
| 2026-05-07 17:54 | 18.07395 | -81.15370 | 36026 ft | 448 kts | 349° |
| 2026-05-07 17:55 | 18.13511 | -81.16461 | 36023 ft | 448 kts | 349° |
| 2026-05-07 17:55 | 18.19669 | -81.17560 | 36022 ft | 448 kts | 349° |
| 2026-05-07 17:56 | 18.25837 | -81.18663 | 36030 ft | 448 kts | 349° |
| 2026-05-07 17:56 | 18.31965 | -81.19758 | 36020 ft | 448 kts | 349° |
| 2026-05-07 17:57 | 18.37089 | -81.20675 | 36027 ft | 449 kts | 349° |
| 2026-05-07 17:57 | 18.44261 | -81.21959 | 36023 ft | 449 kts | 349° |
| 2026-05-07 17:58 | 18.50436 | -81.23066 | 36028 ft | 449 kts | 349° |
| 2026-05-07 17:58 | 18.56605 | -81.24172 | 36030 ft | 449 kts | 349° |
| 2026-05-07 17:59 | 18.62732 | -81.25272 | 36034 ft | 449 kts | 349° |
| 2026-05-07 17:59 | 18.68915 | -81.26382 | 36030 ft | 449 kts | 349° |
| 2026-05-07 18:00 | 18.74045 | -81.27304 | 36030 ft | 450 kts | 349° |
| 2026-05-07 18:00 | 18.80215 | -81.28414 | 36030 ft | 450 kts | 349° |
| 2026-05-07 18:01 | 18.86395 | -81.29526 | 36033 ft | 450 kts | 349° |
| 2026-05-07 18:01 | 18.92570 | -81.30639 | 36030 ft | 450 kts | 349° |
| 2026-05-07 18:02 | 19.01806 | -81.32304 | 36036 ft | 450 kts | 349° |
| 2026-05-07 18:03 | 19.07993 | -81.33420 | 36039 ft | 450 kts | 349° |
| 2026-05-07 18:03 | 19.14137 | -81.34530 | 36051 ft | 450 kts | 349° |
| 2026-05-07 18:04 | 19.20325 | -81.35648 | 36045 ft | 450 kts | 349° |
| 2026-05-07 18:04 | 19.26473 | -81.36760 | 36048 ft | 450 kts | 349° |
| 2026-05-07 18:05 | 19.32690 | -81.37599 | 36044 ft | 451 kts | 355° |
| 2026-05-07 18:05 | 19.38959 | -81.37983 | 36044 ft | 450 kts | 356° |
| 2026-05-07 18:06 | 19.45215 | -81.38342 | 36041 ft | 449 kts | 355° |
| 2026-05-07 18:06 | 19.51416 | -81.38744 | 36042 ft | 448 kts | 355° |
| 2026-05-07 18:07 | 19.57653 | -81.39172 | 36038 ft | 448 kts | 355° |
| 2026-05-07 18:07 | 19.63878 | -81.39604 | 36038 ft | 447 kts | 355° |
| 2026-05-07 18:08 | 19.70056 | -81.40031 | 36038 ft | 447 kts | 355° |
| 2026-05-07 18:08 | 19.76267 | -81.40459 | 36036 ft | 446 kts | 355° |
| 2026-05-07 18:09 | 19.82473 | -81.40888 | 36032 ft | 446 kts | 355° |
| 2026-05-07 18:09 | 19.88671 | -81.41316 | 36039 ft | 446 kts | 355° |
| 2026-05-07 18:10 | 19.94848 | -81.41743 | 36040 ft | 446 kts | 355° |
| 2026-05-07 18:10 | 20.01030 | -81.42139 | 36036 ft | 447 kts | 357° |
| 2026-05-07 18:11 | 20.07266 | -81.42164 | 36042 ft | 448 kts | 359° |
| 2026-05-07 18:11 | 20.13509 | -81.42058 | 36043 ft | 448 kts | 360° |
| 2026-05-07 18:12 | 20.19732 | -81.41972 | 36040 ft | 449 kts | 359° |
| 2026-05-07 18:12 | 20.25991 | -81.41915 | 36041 ft | 449 kts | 359° |
| 2026-05-07 18:13 | 20.32255 | -81.41870 | 36042 ft | 449 kts | 359° |
| 2026-05-07 18:13 | 20.38485 | -81.41827 | 36040 ft | 450 kts | 359° |
| 2026-05-07 18:14 | 20.44768 | -81.41784 | 36040 ft | 450 kts | 359° |
| 2026-05-07 18:14 | 20.51007 | -81.41740 | 36044 ft | 450 kts | 359° |
| 2026-05-07 18:15 | 20.57252 | -81.41695 | 36042 ft | 450 kts | 359° |
| 2026-05-07 18:15 | 20.63523 | -81.41651 | 36043 ft | 449 kts | 359° |
| 2026-05-07 18:16 | 20.69801 | -81.41606 | 36043 ft | 449 kts | 359° |
| 2026-05-07 18:16 | 20.76039 | -81.41562 | 36044 ft | 449 kts | 359° |
| 2026-05-07 18:17 | 20.82260 | -81.41517 | 36043 ft | 449 kts | 359° |
| 2026-05-07 18:17 | 20.88522 | -81.41473 | 36043 ft | 448 kts | 359° |
| 2026-05-07 18:18 | 20.94761 | -81.41428 | 36047 ft | 448 kts | 359° |
| 2026-05-07 18:18 | 21.01001 | -81.41384 | 36047 ft | 448 kts | 359° |
| 2026-05-07 18:19 | 21.07233 | -81.41339 | 36045 ft | 448 kts | 359° |
| 2026-05-07 18:19 | 21.13434 | -81.41295 | 36047 ft | 448 kts | 359° |
| 2026-05-07 18:20 | 21.19690 | -81.41250 | 36045 ft | 448 kts | 359° |
| 2026-05-07 18:20 | 21.25894 | -81.41206 | 36045 ft | 448 kts | 359° |
| 2026-05-07 18:21 | 21.32143 | -81.41161 | 36050 ft | 448 kts | 359° |
| 2026-05-07 18:21 | 21.38363 | -81.41116 | 36048 ft | 448 kts | 358° |
| 2026-05-07 18:22 | 21.44608 | -81.41071 | 36047 ft | 448 kts | 358° |
| 2026-05-07 18:22 | 21.50856 | -81.41026 | 36050 ft | 448 kts | 358° |
| 2026-05-07 18:23 | 21.57075 | -81.40982 | 36045 ft | 448 kts | 358° |
| 2026-05-07 18:23 | 21.63325 | -81.40937 | 36049 ft | 448 kts | 358° |
| 2026-05-07 18:24 | 21.69533 | -81.40892 | 36053 ft | 449 kts | 358° |
| 2026-05-07 18:24 | 21.75790 | -81.40847 | 36050 ft | 449 kts | 358° |
| 2026-05-07 18:25 | 21.82046 | -81.40802 | 36044 ft | 449 kts | 358° |
| 2026-05-07 18:25 | 21.88259 | -81.40757 | 36046 ft | 449 kts | 358° |
| 2026-05-07 18:26 | 21.94533 | -81.40711 | 36046 ft | 449 kts | 358° |
| 2026-05-07 18:26 | 22.00757 | -81.40666 | 36048 ft | 449 kts | 358° |
| 2026-05-07 18:27 | 22.07012 | -81.40621 | 36047 ft | 449 kts | 358° |
| 2026-05-07 18:27 | 22.13245 | -81.40576 | 36043 ft | 449 kts | 358° |
| 2026-05-07 18:28 | 22.19510 | -81.40530 | 36041 ft | 449 kts | 358° |
| 2026-05-07 18:28 | 22.25731 | -81.40485 | 36031 ft | 449 kts | 358° |
| 2026-05-07 18:29 | 22.31996 | -81.40439 | 36036 ft | 449 kts | 358° |
| 2026-05-07 18:29 | 22.38227 | -81.40394 | 36037 ft | 449 kts | 358° |
| 2026-05-07 18:30 | 22.44466 | -81.40348 | 36036 ft | 449 kts | 358° |
| 2026-05-07 18:30 | 22.50723 | -81.40303 | 36030 ft | 449 kts | 358° |
| 2026-05-07 18:31 | 22.56960 | -81.40257 | 36031 ft | 449 kts | 358° |
| 2026-05-07 18:31 | 22.63230 | -81.40212 | 36029 ft | 450 kts | 358° |
| 2026-05-07 18:32 | 22.69488 | -81.39751 | 36038 ft | 451 kts | 4° |
| 2026-05-07 18:32 | 22.75707 | -81.38922 | 36037 ft | 452 kts | 5° |
| 2026-05-07 18:33 | 22.81962 | -81.38092 | 36039 ft | 452 kts | 4° |
| 2026-05-07 18:33 | 22.88173 | -81.37310 | 36044 ft | 452 kts | 4° |
| 2026-05-07 18:34 | 22.94442 | -81.36536 | 36046 ft | 452 kts | 4° |
| 2026-05-07 18:34 | 23.00699 | -81.35762 | 36051 ft | 452 kts | 4° |
| 2026-05-07 18:35 | 23.06923 | -81.34991 | 36049 ft | 452 kts | 4° |
| 2026-05-07 18:35 | 23.13179 | -81.34214 | 36050 ft | 452 kts | 4° |
| 2026-05-07 18:36 | 23.19448 | -81.33433 | 36046 ft | 452 kts | 4° |
| 2026-05-07 18:36 | 23.25662 | -81.32656 | 36045 ft | 452 kts | 4° |
| 2026-05-07 18:37 | 23.31928 | -81.31872 | 36044 ft | 452 kts | 4° |
| 2026-05-07 18:37 | 23.38183 | -81.31088 | 36048 ft | 452 kts | 4° |
| 2026-05-07 18:38 | 23.44401 | -81.30308 | 36048 ft | 452 kts | 4° |
| 2026-05-07 18:38 | 23.50665 | -81.29521 | 36046 ft | 452 kts | 4° |
| 2026-05-07 18:39 | 23.56898 | -81.28738 | 36047 ft | 452 kts | 4° |
| 2026-05-07 18:39 | 23.63160 | -81.27950 | 36048 ft | 452 kts | 3° |
| 2026-05-07 18:40 | 23.69432 | -81.27161 | 36050 ft | 452 kts | 3° |
| 2026-05-07 18:40 | 23.75660 | -81.26376 | 36050 ft | 452 kts | 3° |
| 2026-05-07 18:41 | 23.81927 | -81.25585 | 36050 ft | 452 kts | 3° |
| 2026-05-07 18:41 | 23.88150 | -81.24799 | 36053 ft | 453 kts | 3° |
| 2026-05-07 18:42 | 23.94427 | -81.24006 | 36052 ft | 453 kts | 3° |
| 2026-05-07 18:42 | 24.00691 | -81.23212 | 36056 ft | 453 kts | 3° |
| 2026-05-07 18:43 | 24.06948 | -81.22336 | 36056 ft | 453 kts | 4° |
| 2026-05-07 18:43 | 24.13203 | -81.21423 | 35574 ft | 452 kts | 4° |
| 2026-05-07 18:43 | 24.16273 | -81.20976 | 35016 ft | 451 kts | 4° |
| 2026-05-07 18:44 | 24.19393 | -81.20526 | 34414 ft | 451 kts | 4° |
| 2026-05-07 18:44 | 24.22522 | -81.20077 | 33712 ft | 454 kts | 4° |
| 2026-05-07 18:44 | 24.25664 | -81.19627 | 33004 ft | 455 kts | 4° |
| 2026-05-07 18:44 | 24.28758 | -81.19182 | 32535 ft | 451 kts | 4° |
| 2026-05-07 18:45 | 24.31862 | -81.18736 | 32038 ft | 448 kts | 4° |
| 2026-05-07 18:45 | 24.34938 | -81.18293 | 31564 ft | 444 kts | 4° |
| 2026-05-07 18:45 | 24.38003 | -81.17852 | 31084 ft | 442 kts | 4° |
| 2026-05-07 18:45 | 24.41049 | -81.17414 | 30608 ft | 439 kts | 4° |
| 2026-05-07 18:46 | 24.44042 | -81.16984 | 30147 ft | 437 kts | 4° |
| 2026-05-07 18:46 | 24.47051 | -81.16551 | 29592 ft | 435 kts | 4° |
| 2026-05-07 18:46 | 24.50038 | -81.16121 | 29092 ft | 432 kts | 4° |
| 2026-05-07 18:46 | 24.53001 | -81.15694 | 28591 ft | 429 kts | 4° |
| 2026-05-07 18:47 | 24.54963 | -81.15412 | 28277 ft | 427 kts | 4° |
| 2026-05-07 18:47 | 24.58868 | -81.14849 | 27645 ft | 423 kts | 4° |
| 2026-05-07 18:47 | 24.61786 | -81.14475 | 27168 ft | 420 kts | 2° |
| 2026-05-07 18:47 | 24.64690 | -81.14167 | 26707 ft | 418 kts | 2° |
| 2026-05-07 18:48 | 24.66614 | -81.13974 | 26387 ft | 416 kts | 2° |
| 2026-05-07 18:48 | 24.69492 | -81.13686 | 25919 ft | 414 kts | 2° |
| 2026-05-07 18:48 | 24.72370 | -81.13391 | 25443 ft | 413 kts | 2° |
| 2026-05-07 18:48 | 24.75233 | -81.13090 | 24978 ft | 412 kts | 2° |
| 2026-05-07 18:49 | 24.78045 | -81.12790 | 24510 ft | 411 kts | 2° |
| 2026-05-07 18:49 | 24.80893 | -81.12483 | 24040 ft | 410 kts | 2° |
| 2026-05-07 18:49 | 24.83739 | -81.12177 | 23559 ft | 409 kts | 2° |
| 2026-05-07 18:49 | 24.86575 | -81.11779 | 23003 ft | 410 kts | 11° |
| 2026-05-07 18:50 | 24.89228 | -81.10708 | 22477 ft | 411 kts | 21° |
| 2026-05-07 18:50 | 24.91825 | -81.09408 | 21943 ft | 409 kts | 22° |
| 2026-05-07 18:50 | 24.94398 | -81.08087 | 21417 ft | 407 kts | 23° |
| 2026-05-07 18:50 | 24.96955 | -81.06777 | 20898 ft | 404 kts | 22° |
| 2026-05-07 18:51 | 24.99503 | -81.05487 | 20388 ft | 402 kts | 22° |
| 2026-05-07 18:51 | 25.02046 | -81.04213 | 19875 ft | 399 kts | 22° |
| 2026-05-07 18:51 | 25.04579 | -81.02953 | 19351 ft | 398 kts | 22° |
| 2026-05-07 18:51 | 25.07103 | -81.01704 | 18832 ft | 396 kts | 22° |
| 2026-05-07 18:52 | 25.09614 | -81.00462 | 18321 ft | 394 kts | 22° |
| 2026-05-07 18:52 | 25.12117 | -80.99225 | 17763 ft | 392 kts | 23° |
| 2026-05-07 18:52 | 25.14567 | -80.98014 | 17246 ft | 389 kts | 23° |
| 2026-05-07 18:52 | 25.17028 | -80.96796 | 16712 ft | 387 kts | 23° |
| 2026-05-07 18:53 | 25.19462 | -80.95591 | 16196 ft | 376 kts | 23° |
| 2026-05-07 18:53 | 25.21824 | -80.94421 | 15714 ft | 365 kts | 23° |
| 2026-05-07 18:53 | 25.24115 | -80.93285 | 15241 ft | 355 kts | 23° |
| 2026-05-07 18:53 | 25.26313 | -80.92196 | 14810 ft | 347 kts | 24° |
| 2026-05-07 18:54 | 25.28514 | -80.91104 | 14373 ft | 346 kts | 24° |
| 2026-05-07 18:54 | 25.30735 | -80.90002 | 13912 ft | 351 kts | 24° |
| 2026-05-07 18:54 | 25.32950 | -80.88903 | 13424 ft | 352 kts | 24° |
| 2026-05-07 18:54 | 25.35189 | -80.87792 | 12955 ft | 351 kts | 24° |
| 2026-05-07 18:55 | 25.37419 | -80.86684 | 12497 ft | 350 kts | 24° |
| 2026-05-07 18:55 | 25.39647 | -80.85590 | 12041 ft | 348 kts | 23° |
| 2026-05-07 18:55 | 25.41859 | -80.84563 | 11587 ft | 339 kts | 23° |
| 2026-05-07 18:55 | 25.43988 | -80.83590 | 11162 ft | 330 kts | 23° |
| 2026-05-07 18:56 | 25.46092 | -80.82680 | 10770 ft | 320 kts | 20° |
| 2026-05-07 18:56 | 25.48171 | -80.81891 | 10419 ft | 311 kts | 19° |
| 2026-05-07 18:56 | 25.50204 | -80.81145 | 10075 ft | 303 kts | 19° |
| 2026-05-07 18:56 | 25.52190 | -80.80415 | 9714 ft | 299 kts | 19° |
| 2026-05-07 18:57 | 25.54166 | -80.79681 | 9353 ft | 299 kts | 19° |
| 2026-05-07 18:57 | 25.56107 | -80.78954 | 9006 ft | 298 kts | 19° |
| 2026-05-07 18:57 | 25.58075 | -80.78213 | 8665 ft | 297 kts | 19° |
| 2026-05-07 18:57 | 25.60032 | -80.77474 | 8317 ft | 294 kts | 19° |
| 2026-05-07 18:58 | 25.61954 | -80.76748 | 7980 ft | 288 kts | 19° |
| 2026-05-07 18:58 | 25.63843 | -80.76001 | 7654 ft | 288 kts | 26° |
| 2026-05-07 18:58 | 25.65415 | -80.74683 | 7330 ft | 287 kts | 49° |
| 2026-05-07 18:58 | 25.66655 | -80.72949 | 7015 ft | 287 kts | 53° |
| 2026-05-07 18:59 | 25.67848 | -80.71173 | 6675 ft | 287 kts | 53° |
| 2026-05-07 18:59 | 25.69037 | -80.69394 | 6344 ft | 288 kts | 53° |
| 2026-05-07 18:59 | 25.70232 | -80.67617 | 5998 ft | 288 kts | 53° |
| 2026-05-07 18:59 | 25.71425 | -80.65855 | 5650 ft | 282 kts | 53° |
| 2026-05-07 19:00 | 25.72603 | -80.64124 | 5331 ft | 280 kts | 53° |
| 2026-05-07 19:00 | 25.73755 | -80.62436 | 5003 ft | 275 kts | 52° |
| 2026-05-07 19:00 | 25.74891 | -80.60772 | 4723 ft | 265 kts | 52° |
| 2026-05-07 19:00 | 25.75994 | -80.59159 | 4423 ft | 259 kts | 52° |
| 2026-05-07 19:01 | 25.77064 | -80.57567 | 4117 ft | 253 kts | 57° |
| 2026-05-07 19:01 | 25.77583 | -80.55748 | 3879 ft | 241 kts | 85° |
| 2026-05-07 19:01 | 25.77696 | -80.53953 | 3804 ft | 227 kts | 87° |
| 2026-05-07 19:01 | 25.77777 | -80.52214 | 3562 ft | 226 kts | 88° |
| 2026-05-07 19:02 | 25.77847 | -80.50512 | 3304 ft | 223 kts | 88° |
| 2026-05-07 19:02 | 25.77916 | -80.48793 | 3031 ft | 222 kts | 88° |
| 2026-05-07 19:02 | 25.77980 | -80.47088 | 2740 ft | 218 kts | 88° |
| 2026-05-07 19:02 | 25.78047 | -80.45410 | 2474 ft | 218 kts | 89° |
| 2026-05-07 19:03 | 25.78116 | -80.43727 | 2170 ft | 217 kts | 88° |
| 2026-05-07 19:03 | 25.78181 | -80.42096 | 1887 ft | 208 kts | 90° |
| 2026-05-07 19:03 | 25.78248 | -80.40516 | 1629 ft | 205 kts | 88° |
| 2026-05-07 19:03 | 25.78306 | -80.38991 | 1405 ft | 188 kts | 88° |
| 2026-05-07 19:04 | 25.78361 | -80.37587 | 1137 ft | 172 kts | 89° |
| 2026-05-07 19:04 | 25.78412 | -80.36321 | 939 ft | 154 kts | 90° |
| 2026-05-07 19:04 | 25.78460 | -80.35164 | 763 ft | 147 kts | 90° |
| 2026-05-07 19:04 | 25.78507 | -80.34047 | 550 ft | 145 kts | 90° |
| 2026-05-07 19:05 | 25.78550 | -80.32950 | 383 ft | 143 kts | 91° |
| 2026-05-07 19:05 | 25.78598 | -80.31822 | 186 ft | 146 kts | 91° |
| 2026-05-07 19:05 | 25.78646 | -80.30716 | 30 ft | 139 kts | 90° |
| 2026-05-07 19:05 | 25.78683 | -80.29785 | 18 ft | 98 kts | 87° |
| 2026-05-07 19:06 | 25.78706 | -80.29249 | 18 ft | 51 kts | 88° |
| 2026-05-07 19:06 | 25.78780 | -80.28719 | 16 ft | 21 kts | 49° |
| 2026-05-07 19:06 | 25.78886 | -80.28617 | 15 ft | 20 kts | 36° |
| 2026-05-07 19:07 | 25.78953 | -80.28563 | 16 ft | 4 kts | 34° |
| 2026-05-07 19:07 | 25.78977 | -80.28544 | 16 ft | 7 kts | 35° |
| 2026-05-07 19:07 | 25.79057 | -80.28486 | 16 ft | 19 kts | 33° |
| 2026-05-07 19:07 | 25.79169 | -80.28411 | 17 ft | 18 kts | 23° |
| 2026-05-07 19:08 | 25.79238 | -80.28440 | 19 ft | 10 kts | 304° |
| 2026-05-07 19:08 | 25.79271 | -80.28506 | 17 ft | 10 kts | 298° |
| 2026-05-07 19:08 | 25.79303 | -80.28572 | 16 ft | 10 kts | 298° |
| 2026-05-07 19:08 | 25.79335 | -80.28635 | 15 ft | 9 kts | 300° |
| 2026-05-07 19:09 | 25.79368 | -80.28699 | 14 ft | 10 kts | 300° |
| 2026-05-07 19:09 | 25.79401 | -80.28763 | 14 ft | 10 kts | 302° |
| 2026-05-07 19:09 | 25.79469 | -80.28799 | 16 ft | 13 kts | 355° |
| 2026-05-07 19:09 | 25.79567 | -80.28804 | 19 ft | 16 kts | 358° |
| 2026-05-07 19:10 | 25.79685 | -80.28811 | 20 ft | 17 kts | 357° |
| 2026-05-07 19:10 | 25.79803 | -80.28817 | 20 ft | 17 kts | 358° |
| 2026-05-07 19:10 | 25.79908 | -80.28813 | 22 ft | 14 kts | 25° |
| 2026-05-07 19:10 | 25.79937 | -80.28719 | 20 ft | 13 kts | 86° |
| 2026-05-07 19:11 | 25.79942 | -80.28618 | 19 ft | 13 kts | 87° |
| 2026-05-07 19:11 | 25.79945 | -80.28518 | 16 ft | 13 kts | 88° |
| 2026-05-07 19:11 | 25.79930 | -80.28442 | 18 ft | 10 kts | 144° |
| 2026-05-07 19:11 | 25.79885 | -80.28392 | 16 ft | 10 kts | 99° |
| 2026-05-07 19:12 | 25.79888 | -80.28318 | 14 ft | 9 kts | 88° |
| 2026-05-07 19:12 | 25.79888 | -80.28282 | 14 ft | 4 kts | 99° |
| 2026-05-07 19:12 | 25.79867 | -80.28267 | 15 ft | 4 kts | 167° |
| 2026-05-07 19:12 | 25.79841 | -80.28265 | 15 ft | 4 kts | 177° |
| 2026-05-07 19:13 | 25.79831 | -80.28264 | 14 ft | 0 kts | 176° |